createdAt,value
2023-05-21T00:01:16.988Z,17.03
2023-05-21T00:03:47.378Z,17.02
2023-05-21T00:06:16.278Z,16.97
2023-05-21T00:08:45.224Z,16.94
2023-05-21T00:11:13.798Z,16.93
2023-05-21T00:13:42.983Z,16.89
2023-05-21T00:16:12.070Z,16.89
2023-05-21T00:18:40.551Z,16.91
2023-05-21T00:21:10.170Z,16.91
2023-05-21T00:23:40.005Z,16.91
2023-05-21T00:26:08.535Z,16.84
2023-05-21T00:28:36.933Z,16.78
2023-05-21T00:31:06.453Z,16.77
2023-05-21T00:33:34.684Z,16.71
2023-05-21T00:36:03.201Z,16.69
2023-05-21T00:38:33.057Z,16.63
2023-05-21T00:41:03.366Z,16.66
2023-05-21T00:43:32.685Z,16.63
2023-05-21T00:46:01.487Z,16.64
2023-05-21T00:48:29.645Z,16.61
2023-05-21T00:50:57.941Z,16.59
2023-05-21T00:53:27.776Z,16.58
2023-05-21T00:55:57.550Z,16.47
2023-05-21T00:58:26.029Z,16.46
2023-05-21T01:00:55.882Z,16.50
2023-05-21T01:03:24.730Z,16.50
2023-05-21T01:05:53.378Z,16.49
2023-05-21T01:08:22.797Z,16.43
2023-05-21T01:10:51.748Z,16.38
2023-05-21T01:13:23.311Z,16.39
2023-05-21T01:15:52.390Z,16.37
2023-05-21T01:18:20.860Z,16.38
2023-05-21T01:20:49.684Z,16.37
2023-05-21T01:23:19.524Z,16.38
2023-05-21T01:25:48.249Z,16.37
2023-05-21T01:28:16.586Z,16.35
2023-05-21T01:30:45.041Z,16.37
2023-05-21T01:33:18.381Z,16.39
2023-05-21T01:35:51.824Z,16.39
2023-05-21T01:38:26.096Z,16.38
2023-05-21T01:40:58.848Z,16.37
2023-05-21T01:43:30.647Z,16.31
2023-05-21T01:46:00.203Z,16.27
2023-05-21T01:48:30.845Z,16.24
2023-05-21T01:51:03.203Z,16.20
2023-05-21T01:53:33.270Z,16.21
2023-05-21T01:56:02.970Z,16.23
2023-05-21T01:58:30.889Z,16.22
2023-05-21T02:00:59.207Z,16.20
2023-05-21T02:03:28.666Z,16.21
2023-05-21T02:05:56.690Z,16.21
2023-05-21T02:08:25.675Z,16.18
2023-05-21T02:10:55.064Z,16.18
2023-05-21T02:13:25.809Z,16.19
2023-05-21T02:15:55.410Z,16.12
2023-05-21T02:18:23.803Z,16.06
2023-05-21T02:20:52.260Z,16.03
2023-05-21T02:23:20.536Z,16.03
2023-05-21T02:25:48.743Z,16.03
2023-05-21T02:28:18.052Z,15.97
2023-05-21T02:30:46.063Z,15.97
2023-05-21T02:33:15.759Z,15.97
2023-05-21T02:35:44.711Z,15.93
2023-05-21T02:38:13.668Z,15.86
2023-05-21T02:40:41.733Z,15.78
2023-05-21T02:43:09.988Z,15.80
2023-05-21T02:45:39.965Z,15.80
2023-05-21T02:48:08.113Z,15.79
2023-05-21T02:50:36.730Z,15.81
2023-05-21T02:53:05.040Z,15.80
2023-05-21T02:55:33.243Z,15.76
2023-05-21T02:58:01.528Z,15.73
2023-05-21T03:00:29.787Z,15.73
2023-05-21T03:02:59.203Z,15.69
2023-05-21T03:05:27.501Z,15.69
2023-05-21T03:07:55.494Z,15.67
2023-05-21T03:10:23.547Z,15.66
2023-05-21T03:12:52.627Z,15.64
2023-05-21T03:15:24.017Z,15.49
2023-05-21T03:17:54.222Z,15.45
2023-05-21T03:20:23.911Z,15.40
2023-05-21T03:22:52.869Z,15.40
2023-05-21T03:25:21.702Z,15.39
2023-05-21T03:27:50.011Z,15.37
2023-05-21T03:30:18.088Z,15.40
2023-05-21T03:32:46.305Z,15.41
2023-05-21T03:35:14.491Z,15.40
2023-05-21T03:37:43.966Z,15.39
2023-05-21T03:40:14.312Z,15.37
2023-05-21T03:42:42.585Z,15.40
2023-05-21T03:45:11.608Z,15.37
2023-05-21T03:47:39.667Z,15.37
2023-05-21T03:50:09.510Z,15.35
2023-05-21T03:52:37.537Z,15.35
2023-05-21T03:55:07.658Z,15.34
2023-05-21T03:57:35.614Z,15.31
2023-05-21T04:00:04.915Z,15.27
2023-05-21T04:02:33.141Z,15.29
2023-05-21T04:05:01.173Z,15.28
2023-05-21T04:07:30.043Z,15.27
2023-05-21T04:09:58.310Z,15.26
2023-05-21T04:12:29.169Z,15.23
2023-05-21T04:14:57.158Z,15.21
2023-05-21T04:17:26.986Z,15.21
2023-05-21T04:19:55.475Z,15.18
2023-05-21T04:22:26.610Z,15.17
2023-05-21T04:24:54.741Z,15.15
2023-05-21T04:27:23.940Z,15.17
2023-05-21T04:29:54.982Z,15.20
2023-05-21T04:32:23.678Z,15.23
2023-05-21T04:34:52.352Z,15.25
2023-05-21T04:37:20.970Z,15.23
2023-05-21T04:39:49.222Z,15.11
2023-05-21T04:42:19.539Z,15.09
2023-05-21T04:44:49.077Z,15.09
2023-05-21T04:47:19.231Z,15.08
2023-05-21T04:49:48.200Z,15.04
2023-05-21T04:52:16.953Z,15.06
2023-05-21T04:54:46.033Z,15.08
2023-05-21T04:57:14.493Z,15.10
2023-05-21T04:59:44.021Z,15.10
2023-05-21T05:02:12.606Z,15.11
2023-05-21T05:04:44.157Z,15.18
2023-05-21T05:07:12.171Z,15.21
2023-05-21T05:09:40.282Z,15.24
2023-05-21T05:12:09.144Z,15.25
2023-05-21T05:14:37.368Z,15.24
2023-05-21T05:17:08.278Z,15.28
2023-05-21T05:19:36.700Z,15.29
2023-05-21T05:22:06.426Z,15.31
2023-05-21T05:24:34.433Z,15.27
2023-05-21T05:27:02.438Z,15.31
2023-05-21T05:29:30.532Z,15.35
2023-05-21T05:31:58.897Z,15.38
2023-05-21T05:34:26.877Z,15.43
2023-05-21T05:36:55.293Z,15.47
2023-05-21T05:39:24.635Z,15.55
2023-05-21T05:41:52.975Z,15.65
2023-05-21T05:44:21.161Z,15.62
2023-05-21T05:46:49.300Z,15.65
2023-05-21T05:49:17.695Z,15.67
2023-05-21T05:51:45.746Z,15.70
2023-05-21T05:54:14.302Z,15.71
2023-05-21T05:56:43.708Z,15.74
2023-05-21T05:59:13.869Z,15.75
2023-05-21T06:01:43.978Z,15.77
2023-05-21T06:04:13.945Z,15.87
2023-05-21T06:06:43.785Z,15.89
2023-05-21T06:09:16.654Z,15.94
2023-05-21T06:11:47.665Z,15.98
2023-05-21T06:14:16.237Z,16.05
2023-05-21T06:16:49.321Z,16.08
2023-05-21T06:19:19.161Z,16.07
2023-05-21T06:21:48.775Z,16.10
2023-05-21T06:24:25.205Z,16.15
2023-05-21T06:26:57.708Z,16.23
2023-05-21T06:29:28.050Z,16.33
2023-05-21T06:32:02.509Z,16.41
2023-05-21T06:34:33.608Z,16.49
2023-05-21T06:37:03.312Z,16.58
2023-05-21T06:39:37.072Z,16.68
2023-05-21T06:42:08.064Z,16.76
2023-05-21T06:44:37.254Z,16.90
2023-05-21T06:47:07.422Z,16.93
2023-05-21T06:49:36.455Z,17.03
2023-05-21T06:52:05.257Z,17.11
2023-05-21T06:54:33.702Z,17.19
2023-05-21T06:57:04.232Z,17.24
2023-05-21T06:59:34.525Z,17.33
2023-05-21T07:02:04.672Z,17.44
2023-05-21T07:04:35.363Z,17.58
2023-05-21T07:07:04.804Z,17.75
2023-05-21T07:09:33.860Z,17.89
2023-05-21T07:12:02.717Z,18.10
2023-05-21T07:14:31.317Z,18.30
2023-05-21T07:17:03.736Z,18.49
2023-05-21T07:19:32.578Z,18.64
2023-05-21T07:22:01.754Z,18.85
2023-05-21T07:24:30.235Z,18.99
2023-05-21T07:26:58.803Z,19.20
2023-05-21T07:29:27.399Z,19.29
2023-05-21T07:31:55.810Z,19.54
2023-05-21T07:34:26.317Z,19.72
2023-05-21T07:36:55.234Z,19.88
2023-05-21T07:39:23.446Z,19.96
2023-05-21T07:41:51.515Z,20.00
2023-05-21T07:44:19.461Z,20.09
2023-05-21T07:46:47.514Z,20.15
2023-05-21T07:49:16.960Z,20.28
2023-05-21T07:51:46.961Z,20.47
2023-05-21T07:54:15.116Z,20.63
2023-05-21T07:56:43.411Z,20.81
2023-05-21T07:59:13.824Z,21.00
2023-05-21T08:01:42.118Z,21.16
2023-05-21T08:04:10.596Z,21.24
2023-05-21T08:06:40.047Z,21.40
2023-05-21T08:09:09.378Z,21.48
2023-05-21T08:11:37.554Z,21.51
2023-05-21T08:14:05.936Z,21.51
2023-05-21T08:16:34.348Z,21.58
2023-05-21T08:21:30.792Z,21.75
2023-05-21T08:24:00.406Z,21.74
2023-05-21T08:26:29.823Z,21.76
2023-05-21T08:28:57.812Z,21.79
2023-05-21T08:31:25.868Z,21.72
2023-05-21T08:33:56.254Z,21.79
2023-05-21T08:36:24.580Z,21.96
2023-05-21T08:38:52.528Z,22.03
2023-05-21T08:41:23.461Z,22.13
2023-05-21T08:43:57.973Z,22.23
2023-05-21T08:46:30.141Z,22.36
2023-05-21T08:48:58.961Z,22.45
2023-05-21T08:51:27.995Z,22.49
2023-05-21T08:53:57.443Z,22.55
2023-05-21T08:56:25.983Z,22.66
2023-05-21T08:58:55.699Z,22.65
2023-05-21T09:01:26.431Z,22.49
2023-05-21T09:04:04.824Z,22.47
2023-05-21T09:06:37.006Z,22.55
2023-05-21T09:09:12.973Z,22.73
2023-05-21T09:11:42.247Z,22.69
2023-05-21T09:14:12.924Z,22.79
2023-05-21T09:16:41.327Z,22.80
2023-05-21T09:19:09.514Z,22.74
2023-05-21T09:21:37.605Z,22.61
2023-05-21T09:24:06.458Z,22.63
2023-05-21T09:26:34.379Z,22.59
2023-05-21T09:29:02.376Z,22.68
2023-05-21T09:31:33.014Z,22.62
2023-05-21T09:34:01.087Z,22.73
2023-05-21T09:36:30.188Z,22.69
2023-05-21T09:39:00.106Z,22.70
2023-05-21T09:41:37.244Z,22.69
2023-05-21T09:44:05.786Z,22.88
2023-05-21T09:46:41.833Z,23.15
2023-05-21T09:49:24.079Z,23.09
2023-05-21T09:51:52.413Z,23.16
2023-05-21T09:54:20.405Z,23.28
2023-05-21T09:56:48.812Z,23.40
2023-05-21T09:59:17.138Z,23.44
2023-05-21T10:01:47.520Z,23.39
2023-05-21T10:04:16.109Z,23.52
2023-05-21T10:06:45.281Z,23.58
2023-05-21T10:09:20.091Z,23.61
2023-05-21T10:11:53.865Z,23.46
2023-05-21T10:14:22.729Z,23.57
2023-05-21T10:16:55.468Z,23.60
2023-05-21T10:19:28.404Z,23.78
2023-05-21T10:21:58.196Z,23.97
2023-05-21T10:24:26.893Z,24.07
2023-05-21T10:26:55.466Z,24.12
2023-05-21T10:29:24.685Z,24.24
2023-05-21T10:31:54.953Z,24.45
2023-05-21T10:34:24.888Z,24.68
2023-05-21T10:36:56.117Z,24.84
2023-05-21T10:39:26.612Z,25.00
2023-05-21T10:42:04.925Z,25.14
2023-05-21T10:44:45.942Z,24.99
2023-05-21T10:47:47.974Z,24.98
2023-05-21T10:50:30.795Z,24.95
2023-05-21T10:53:10.888Z,24.78
2023-05-21T10:55:51.265Z,24.93
2023-05-21T10:58:44.267Z,25.14
2023-05-21T11:01:13.975Z,25.34
2023-05-21T11:03:45.934Z,25.22
2023-05-21T11:06:24.606Z,25.23
2023-05-21T11:08:55.279Z,25.22
2023-05-21T11:11:44.105Z,25.14
2023-05-21T11:14:35.045Z,25.52
2023-05-21T11:17:04.370Z,25.62
2023-05-21T11:19:39.271Z,25.79
2023-05-21T11:22:21.587Z,25.96
2023-05-21T11:24:51.307Z,26.14
2023-05-21T11:27:34.440Z,26.28
2023-05-21T11:30:06.254Z,26.52
2023-05-21T11:33:19.690Z,26.78
2023-05-21T11:36:00.337Z,27.06
2023-05-21T11:38:31.112Z,27.32
2023-05-21T11:41:05.568Z,27.57
2023-05-21T11:43:33.919Z,27.55
2023-05-21T11:46:02.431Z,27.64
2023-05-21T11:48:32.654Z,27.46
2023-05-21T11:51:03.421Z,27.48
2023-05-21T11:53:33.024Z,27.62
2023-05-21T11:56:09.911Z,27.66
2023-05-21T11:58:37.987Z,27.51
2023-05-21T12:01:06.177Z,27.59
2023-05-21T12:03:36.142Z,27.55
2023-05-21T12:06:08.489Z,27.52
2023-05-21T12:08:38.411Z,27.62
2023-05-21T12:11:06.818Z,27.59
2023-05-21T12:13:34.886Z,27.65
2023-05-21T12:16:07.071Z,27.77
2023-05-21T12:18:35.307Z,27.81
2023-05-21T12:21:04.231Z,27.87
2023-05-21T12:23:33.798Z,28.02
2023-05-21T12:26:03.305Z,28.06
2023-05-21T12:28:32.147Z,28.24
2023-05-21T12:31:00.678Z,28.27
2023-05-21T12:33:35.995Z,28.35
2023-05-21T12:36:04.227Z,28.28
2023-05-21T12:38:33.984Z,28.28
2023-05-21T12:41:05.769Z,28.19
2023-05-21T12:43:36.300Z,28.16
2023-05-21T12:46:06.723Z,28.18
2023-05-21T12:48:35.133Z,28.14
2023-05-21T12:51:03.272Z,28.22
2023-05-21T12:53:44.440Z,28.28
2023-05-21T12:56:12.994Z,28.46
2023-05-21T12:58:44.109Z,28.53
2023-05-21T13:01:14.148Z,28.59
2023-05-21T13:03:44.272Z,28.58
2023-05-21T13:06:12.410Z,28.52
2023-05-21T13:08:42.041Z,28.57
2023-05-21T13:11:10.279Z,28.49
2023-05-21T13:13:38.378Z,28.22
2023-05-21T13:16:07.483Z,28.23
2023-05-21T13:18:36.160Z,28.26
2023-05-21T13:21:04.742Z,28.35
2023-05-21T13:23:33.087Z,28.39
2023-05-21T13:26:02.803Z,28.41
2023-05-21T13:28:31.264Z,28.35
2023-05-21T13:30:59.588Z,28.20
2023-05-21T13:33:27.898Z,28.02
2023-05-21T13:35:56.179Z,28.03
2023-05-21T13:38:24.626Z,27.91
2023-05-21T13:40:53.126Z,27.67
2023-05-21T13:43:22.738Z,27.59
2023-05-21T13:45:53.322Z,27.45
2023-05-21T13:48:23.011Z,27.45
2023-05-21T13:50:51.108Z,27.19
2023-05-21T13:53:19.525Z,27.15
2023-05-21T13:55:47.985Z,27.16
2023-05-21T13:58:16.636Z,26.97
2023-05-21T14:00:46.034Z,26.97
2023-05-21T14:03:14.107Z,26.85
2023-05-21T14:05:44.103Z,26.72
2023-05-21T14:08:12.664Z,26.74
2023-05-21T14:10:40.800Z,26.71
2023-05-21T14:13:18.877Z,26.63
2023-05-21T14:15:48.816Z,26.62
2023-05-21T14:18:16.856Z,26.59
2023-05-21T14:20:45.136Z,26.60
2023-05-21T14:23:13.218Z,26.60
2023-05-21T14:25:43.295Z,26.59
2023-05-21T14:28:13.994Z,26.51
2023-05-21T14:30:41.973Z,26.58
2023-05-21T14:33:11.489Z,26.48
2023-05-21T14:35:41.513Z,26.45
2023-05-21T14:38:09.751Z,26.41
2023-05-21T14:40:38.228Z,26.36
2023-05-21T14:43:06.570Z,26.29
2023-05-21T14:45:35.845Z,26.24
2023-05-21T14:48:08.450Z,26.23
2023-05-21T14:50:38.974Z,26.32
2023-05-21T14:53:07.332Z,26.33
2023-05-21T14:55:37.250Z,26.40
2023-05-21T14:58:06.211Z,26.47
2023-05-21T15:00:35.052Z,26.44
2023-05-21T15:03:03.487Z,26.45
2023-05-21T15:05:34.659Z,26.53
2023-05-21T15:08:06.142Z,26.51
2023-05-21T15:10:34.598Z,26.47
2023-05-21T15:13:02.739Z,26.44
2023-05-21T15:15:30.912Z,26.43
2023-05-21T15:17:58.938Z,26.42
2023-05-21T15:20:27.035Z,26.46
2023-05-21T15:23:08.493Z,26.49
2023-05-21T15:25:44.725Z,26.46
2023-05-21T15:28:13.121Z,26.42
2023-05-21T15:30:41.547Z,26.32
2023-05-21T15:33:09.894Z,26.39
2023-05-21T15:35:38.179Z,26.35
2023-05-21T15:38:06.655Z,26.37
2023-05-21T15:40:34.656Z,26.18
2023-05-21T15:43:04.042Z,26.24
2023-05-21T15:45:32.042Z,26.27
2023-05-21T15:48:00.201Z,26.16
2023-05-21T15:50:28.666Z,26.23
2023-05-21T15:52:56.998Z,26.15
2023-05-21T15:55:24.971Z,26.15
2023-05-21T15:57:53.058Z,26.23
2023-05-21T16:00:22.577Z,26.30
2023-05-21T16:02:50.652Z,26.13
2023-05-21T16:05:19.035Z,26.22
2023-05-21T16:07:47.105Z,26.13
2023-05-21T16:10:15.367Z,26.07
2023-05-21T16:12:43.480Z,26.05
2023-05-21T16:15:12.089Z,26.03
2023-05-21T16:17:41.475Z,25.92
2023-05-21T16:20:10.708Z,25.88
2023-05-21T16:22:40.287Z,25.82
2023-05-21T16:25:09.805Z,25.77
2023-05-21T16:27:37.782Z,25.93
2023-05-21T16:30:08.090Z,25.83
2023-05-21T16:32:36.205Z,25.71
2023-05-21T16:35:06.837Z,25.71
2023-05-21T16:37:35.673Z,25.64
2023-05-21T16:40:04.876Z,25.59
2023-05-21T16:42:32.986Z,25.57
2023-05-21T16:45:01.221Z,25.50
2023-05-21T16:47:29.299Z,25.51
2023-05-21T16:49:58.625Z,25.44
2023-05-21T16:52:29.714Z,25.40
2023-05-21T16:54:57.810Z,25.37
2023-05-21T16:57:25.954Z,25.35
2023-05-21T16:59:54.120Z,25.30
2023-05-21T17:02:22.580Z,25.23
2023-05-21T17:04:50.966Z,25.23
2023-05-21T17:07:19.760Z,25.17
2023-05-21T17:09:49.419Z,25.14
2023-05-21T17:12:17.694Z,25.09
2023-05-21T17:14:45.774Z,25.06
2023-05-21T17:17:14.078Z,25.06
2023-05-21T17:19:44.717Z,25.02
2023-05-21T17:22:12.922Z,25.01
2023-05-21T17:24:40.968Z,24.94
2023-05-21T17:27:10.789Z,24.90
2023-05-21T17:29:38.997Z,24.85
2023-05-21T17:32:07.539Z,24.81
2023-05-21T17:34:38.354Z,24.77
2023-05-21T17:37:06.959Z,24.73
2023-05-21T17:39:35.286Z,24.68
2023-05-21T17:42:03.503Z,24.61
2023-05-21T17:44:33.059Z,24.55
2023-05-21T17:47:01.374Z,24.50
2023-05-21T17:49:29.569Z,24.34
2023-05-21T17:52:01.105Z,24.26
2023-05-21T17:54:28.977Z,24.16
2023-05-21T17:56:57.233Z,24.04
2023-05-21T17:59:25.317Z,23.95
2023-05-21T18:01:54.793Z,23.86
2023-05-21T18:04:23.745Z,23.79
2023-05-21T18:06:52.404Z,23.70
2023-05-21T18:09:20.694Z,23.63
2023-05-21T18:11:49.085Z,23.56
2023-05-21T18:14:17.175Z,23.50
2023-05-21T18:16:47.413Z,23.46
2023-05-21T18:19:19.606Z,23.39
2023-05-21T18:21:49.196Z,23.32
2023-05-21T18:24:17.335Z,23.23
2023-05-21T18:26:47.913Z,23.16
2023-05-21T18:29:15.940Z,23.09
2023-05-21T18:31:45.211Z,23.02
2023-05-21T18:34:13.635Z,22.91
2023-05-21T18:36:43.036Z,22.83
2023-05-21T18:39:11.833Z,22.76
2023-05-21T18:41:40.920Z,22.66
2023-05-21T18:44:09.261Z,22.60
2023-05-21T18:46:38.276Z,22.52
2023-05-21T18:49:06.798Z,22.54
2023-05-21T18:51:35.088Z,22.26
2023-05-21T18:54:04.985Z,22.20
2023-05-21T18:56:33.433Z,22.10
2023-05-21T18:59:01.805Z,22.06
2023-05-21T19:01:29.912Z,21.96
2023-05-21T19:03:58.344Z,21.85
2023-05-21T19:06:27.925Z,21.78
2023-05-21T19:08:58.954Z,21.72
2023-05-21T19:11:33.562Z,21.63
2023-05-21T19:14:01.968Z,21.58
2023-05-21T19:16:32.967Z,21.53
2023-05-21T19:19:02.226Z,21.46
2023-05-21T19:21:31.453Z,21.39
2023-05-21T19:23:59.582Z,21.33
2023-05-21T19:26:29.415Z,21.28
2023-05-21T19:28:57.502Z,21.20
2023-05-21T19:31:26.669Z,21.12
2023-05-21T19:33:54.721Z,21.05
2023-05-21T19:36:23.165Z,20.91
2023-05-21T19:38:52.565Z,20.87
2023-05-21T19:41:23.019Z,20.80
2023-05-21T19:43:52.600Z,20.70
2023-05-21T19:46:23.738Z,20.68
2023-05-21T19:48:52.360Z,20.63
2023-05-21T19:51:20.851Z,20.58
2023-05-21T19:53:49.448Z,20.52
2023-05-21T19:56:17.737Z,20.51
2023-05-21T19:58:48.121Z,20.50
2023-05-21T20:01:19.124Z,20.48
2023-05-21T20:03:48.608Z,20.42
2023-05-21T20:06:19.226Z,20.34
2023-05-21T20:08:47.890Z,20.30
2023-05-21T20:11:19.852Z,20.25
2023-05-21T20:13:50.503Z,20.15
2023-05-21T20:16:20.806Z,20.03
2023-05-21T20:18:49.295Z,19.99
2023-05-21T20:21:19.011Z,19.95
2023-05-21T20:23:47.439Z,19.93
2023-05-21T20:26:16.411Z,19.83
2023-05-21T20:28:44.921Z,19.85
2023-05-21T20:31:13.113Z,19.76
2023-05-21T20:33:43.072Z,19.77
2023-05-21T20:36:11.465Z,19.68
2023-05-21T20:38:42.250Z,19.63
2023-05-21T20:41:10.713Z,19.57
2023-05-21T20:43:38.808Z,19.48
2023-05-21T20:46:07.875Z,19.47
2023-05-21T20:48:37.767Z,19.43
2023-05-21T20:51:08.083Z,19.43
2023-05-21T20:53:37.061Z,19.38
2023-05-21T20:56:08.102Z,19.36
2023-05-21T20:58:36.909Z,19.35
2023-05-21T21:01:04.927Z,19.33
2023-05-21T21:03:34.327Z,19.30
2023-05-21T21:06:03.288Z,19.28
2023-05-21T21:08:34.767Z,19.27
2023-05-21T21:11:02.812Z,19.21
2023-05-21T21:13:31.136Z,19.04
2023-05-21T21:15:59.520Z,18.99
2023-05-21T21:18:29.111Z,18.92
2023-05-21T21:20:59.415Z,18.86
2023-05-21T21:23:30.291Z,18.81
2023-05-21T21:25:59.792Z,18.78
2023-05-21T21:28:31.204Z,18.60
2023-05-21T21:30:59.671Z,18.57
2023-05-21T21:33:28.541Z,18.59
2023-05-21T21:35:56.858Z,18.62
2023-05-21T21:38:25.359Z,18.65
2023-05-21T21:40:54.573Z,18.66
2023-05-21T21:43:24.525Z,18.64
2023-05-21T21:45:53.181Z,18.61
2023-05-21T21:48:22.955Z,18.51
2023-05-21T21:50:51.307Z,18.46
2023-05-21T21:53:19.549Z,18.42
2023-05-21T21:55:48.510Z,18.35
2023-05-21T21:58:16.865Z,18.35
2023-05-21T22:00:46.788Z,18.35
2023-05-21T22:03:16.649Z,18.37
2023-05-21T22:05:44.976Z,18.34
2023-05-21T22:08:13.394Z,18.29
2023-05-21T22:10:41.771Z,18.26
2023-05-21T22:13:10.798Z,18.23
2023-05-21T22:15:39.819Z,18.25
2023-05-21T22:18:12.278Z,18.23
2023-05-21T22:20:41.197Z,18.22
2023-05-21T22:23:09.884Z,18.24
2023-05-21T22:25:38.276Z,18.06
2023-05-21T22:28:07.160Z,18.02
2023-05-21T22:30:35.833Z,18.00
2023-05-21T22:33:04.335Z,17.97
2023-05-21T22:35:34.273Z,17.91
2023-05-21T22:38:02.985Z,17.87
2023-05-21T22:40:31.745Z,17.78
2023-05-21T22:43:02.525Z,17.79
2023-05-21T22:45:31.608Z,17.74
2023-05-21T22:48:01.791Z,17.70
2023-05-21T22:50:32.985Z,17.72
2023-05-21T22:53:02.858Z,17.72
2023-05-21T22:55:31.307Z,17.72
2023-05-21T22:57:59.667Z,17.68
2023-05-21T23:00:28.099Z,17.69
2023-05-21T23:02:56.354Z,17.70
2023-05-21T23:05:24.402Z,17.77
2023-05-21T23:07:52.678Z,17.66
2023-05-21T23:10:22.036Z,17.61
2023-05-21T23:12:50.103Z,17.56
2023-05-21T23:15:19.106Z,17.54
2023-05-21T23:17:47.771Z,17.50
2023-05-21T23:20:15.997Z,17.50
2023-05-21T23:22:43.906Z,17.51
2023-05-21T23:25:11.863Z,17.50
2023-05-21T23:27:41.116Z,17.43
2023-05-21T23:30:10.902Z,17.42
2023-05-21T23:32:38.937Z,17.40
2023-05-21T23:35:09.398Z,17.39
2023-05-21T23:37:37.766Z,17.38
2023-05-21T23:40:06.722Z,17.30
2023-05-21T23:42:35.145Z,17.22
2023-05-21T23:45:05.600Z,17.23
2023-05-21T23:47:33.651Z,17.23
2023-05-21T23:50:01.775Z,17.25
2023-05-21T23:52:30.426Z,17.27
2023-05-21T23:54:59.193Z,17.22
2023-05-21T23:57:27.205Z,17.23
2023-05-21T23:59:55.761Z,17.21
